Time;durP1;ratioP1;P1;durP2;ratioP2;P2;SDS_P1;SDS_P2;PMS_P1;PMS_P2;Temp;Humidity;BMP_temperature;BMP_pressure;BME280_temperature;BME280_humidity;BME280_pressure;Samples;Min_cycle;Max_cycle;Signal;HPM_P1;HPM_P2
2022/07/30 00:00:35;;;;;;;;;;;22.80;90.80;;;;;;5054712;28;19908;-65
2022/07/30 00:03:00;;;;;;;;;;;22.80;90.90;;;;;;5054571;28;19924;-65
2022/07/30 00:05:26;;;;;;;;;;;22.70;91.10;;;;;;5069644;28;20321;-65
2022/07/30 00:07:51;;;;;;;;;;;22.60;91.20;;;;;;5052808;28;19999;-64
2022/07/30 00:10:17;;;;;;;;;;;22.60;91.50;;;;;;5053795;28;19904;-64
2022/07/30 00:12:42;;;;;;;;;;;22.70;91.50;;;;;;5052744;28;19955;-64
2022/07/30 00:15:08;;;;;;;;;;;22.60;91.80;;;;;;5052479;28;19909;-64
2022/07/30 00:17:33;;;;;;;;;;;22.70;91.60;;;;;;5052510;28;19905;-64
2022/07/30 00:19:59;;;;;;;;;;;22.60;91.80;;;;;;5052635;28;19912;-64
2022/07/30 00:22:24;;;;;;;;;;;22.50;92.00;;;;;;5054002;28;20425;-65
2022/07/30 00:24:49;;;;;;;;;;;22.50;92.20;;;;;;5068412;28;19904;-66
2022/07/30 00:27:15;;;;;;;;;;;22.50;92.30;;;;;;5053982;28;20093;-66
2022/07/30 00:29:40;;;;;;;;;;;22.50;92.40;;;;;;5053943;28;19916;-66
2022/07/30 00:32:06;;;;;;;;;;;22.60;92.40;;;;;;5053510;28;20280;-65
2022/07/30 00:34:31;;;;;;;;;;;22.60;92.20;;;;;;5052646;28;19905;-65
2022/07/30 00:36:57;;;;;;;;;;;22.50;92.50;;;;;;5052823;28;20000;-65
2022/07/30 00:39:22;;;;;;;;;;;22.40;92.70;;;;;;5054224;28;19905;-66
2022/07/30 00:41:52;;;;;;;;;;;22.30;92.90;;;;;;5053994;28;19950;-65
2022/07/30 00:44:17;;;;;;;;;;;22.30;93.20;;;;;;5052621;28;20373;-65
2022/07/30 00:46:43;;;;;;;;;;;22.20;93.50;;;;;;5053920;28;19905;-65
2022/07/30 00:49:08;;;;;;;;;;;22.20;93.50;;;;;;5052956;28;20363;-65
2022/07/30 00:51:33;;;;;;;;;;;22.20;93.70;;;;;;5053172;28;19916;-65
2022/07/30 00:53:59;;;;;;;;;;;22.20;93.90;;;;;;5054722;28;19905;-65
2022/07/30 00:56:24;;;;;;;;;;;22.10;94.20;;;;;;5054375;28;19951;-65
2022/07/30 00:58:50;;;;;;;;;;;22.10;94.40;;;;;;5052682;28;20398;-65
2022/07/30 01:01:15;;;;;;;;;;;22.10;94.60;;;;;;5053705;28;19905;-65
2022/07/30 01:03:41;;;;;;;;;;;22.10;95.00;;;;;;5052341;28;19917;-65
2022/07/30 01:06:06;;;;;;;;;;;22.00;94.90;;;;;;5052573;28;20356;-65
2022/07/30 01:08:32;;;;;;;;;;;22.00;95.00;;;;;;5053643;28;19928;-65
2022/07/30 01:10:57;;;;;;;;;;;22.00;95.20;;;;;;5053528;28;19908;-64
2022/07/30 01:13:23;;;;;;;;;;;22.00;95.40;;;;;;5053944;28;19935;-64
2022/07/30 01:15:48;;;;;;;;;;;22.00;95.60;;;;;;5052148;28;19904;-65
2022/07/30 01:18:14;;;;;;;;;;;21.90;95.40;;;;;;5053751;28;19905;-65
2022/07/30 01:20:47;;;;;;;;;;;21.80;95.30;;;;;;5053767;28;19904;-65
2022/07/30 01:23:33;;;;;;;;;;;21.80;95.80;;;;;;5053605;28;19995;-64
2022/07/30 01:26:04;;;;;;;;;;;21.90;96.00;;;;;;5053143;28;19992;-66
2022/07/30 01:28:34;;;;;;;;;;;21.70;96.40;;;;;;5053114;28;19984;-65
2022/07/30 01:31:01;;;;;;;;;;;21.70;96.60;;;;;;5052985;28;19909;-66
2022/07/30 01:33:28;;;;;;;;;;;21.70;97.10;;;;;;5053320;28;20341;-65
2022/07/30 01:35:54;;;;;;;;;;;21.60;97.20;;;;;;5053196;28;19905;-65
2022/07/30 01:38:21;;;;;;;;;;;21.50;97.80;;;;;;5055401;28;19954;-65
2022/07/30 01:40:48;;;;;;;;;;;21.50;98.20;;;;;;5056633;28;20316;-65
2022/07/30 01:43:15;;;;;;;;;;;21.30;98.40;;;;;;5056363;28;19905;-65
2022/07/30 01:45:40;;;;;;;;;;;21.20;98.90;;;;;;5055347;28;19904;-65
2022/07/30 01:48:07;;;;;;;;;;;21.20;99.30;;;;;;5056926;28;19992;-65
2022/07/30 01:50:34;;;;;;;;;;;21.10;99.60;;;;;;5055022;28;19905;-66
2022/07/30 01:52:59;;;;;;;;;;;21.10;99.90;;;;;;5054753;28;19908;-65
2022/07/30 01:55:34;;;;;;;;;;;21.10;99.90;;;;;;5055085;28;19905;-65
2022/07/30 01:57:59;;;;;;;;;;;21.00;99.90;;;;;;5056505;28;19905;-65
2022/07/30 02:00:26;;;;;;;;;;;21.00;99.90;;;;;;5054992;28;19912;-65
2022/07/30 02:02:53;;;;;;;;;;;20.90;99.90;;;;;;5055024;28;19951;-65
2022/07/30 02:05:18;;;;;;;;;;;20.70;99.90;;;;;;5054752;28;19955;-65
2022/07/30 02:07:59;;;;;;;;;;;20.70;99.90;;;;;;5055210;28;19905;-65
2022/07/30 02:10:39;;;;;;;;;;;20.70;99.90;;;;;;5056216;28;19948;-65
2022/07/30 02:13:06;;;;;;;;;;;20.70;99.90;;;;;;5055756;28;19948;-65
2022/07/30 02:15:37;;;;;;;;;;;20.60;99.90;;;;;;5054489;28;19908;-65
2022/07/30 02:18:09;;;;;;;;;;;20.50;99.90;;;;;;5056249;28;19905;-65
2022/07/30 02:20:35;;;;;;;;;;;20.50;99.90;;;;;;5054472;28;19904;-65
2022/07/30 02:23:02;;;;;;;;;;;20.50;99.90;;;;;;5055613;28;19915;-65
2022/07/30 02:25:28;;;;;;;;;;;20.40;99.90;;;;;;5055630;28;19954;-65
2022/07/30 02:27:55;;;;;;;;;;;20.30;99.90;;;;;;5055941;28;19905;-65
2022/07/30 02:30:22;;;;;;;;;;;20.30;99.90;;;;;;5055611;28;19916;-65
2022/07/30 02:32:48;;;;;;;;;;;20.30;99.90;;;;;;5055407;28;19930;-65
2022/07/30 02:35:15;;;;;;;;;;;20.30;99.90;;;;;;5055612;28;19905;-65
2022/07/30 02:37:42;;;;;;;;;;;20.30;99.90;;;;;;5055733;28;19963;-65
2022/07/30 02:40:08;;;;;;;;;;;20.30;99.90;;;;;;5054165;28;20328;-65
2022/07/30 02:42:35;;;;;;;;;;;20.30;99.90;;;;;;5070748;28;20246;-65
2022/07/30 02:45:01;;;;;;;;;;;20.20;99.90;;;;;;5055405;28;19916;-65
2022/07/30 02:47:27;;;;;;;;;;;20.20;99.90;;;;;;5055009;28;19905;-65
2022/07/30 02:49:53;;;;;;;;;;;20.20;99.90;;;;;;5070552;28;19983;-65
2022/07/30 02:52:20;;;;;;;;;;;20.20;99.90;;;;;;5054074;28;19951;-66
2022/07/30 02:54:46;;;;;;;;;;;20.10;99.90;;;;;;5070563;28;20369;-65
2022/07/30 02:57:13;;;;;;;;;;;20.10;99.90;;;;;;5055592;28;20353;-65
2022/07/30 02:59:39;;;;;;;;;;;20.10;99.90;;;;;;5056077;28;20335;-65
2022/07/30 03:02:06;;;;;;;;;;;20.00;99.90;;;;;;5055826;28;20373;-66
2022/07/30 03:04:31;;;;;;;;;;;20.00;99.90;;;;;;5054900;28;19916;-67
2022/07/30 03:06:58;;;;;;;;;;;20.00;99.90;;;;;;5054989;28;19905;-67
2022/07/30 03:09:25;;;;;;;;;;;19.90;99.90;;;;;;5070219;28;20010;-67
2022/07/30 03:11:51;;;;;;;;;;;19.80;99.90;;;;;;5054685;28;20353;-66
2022/07/30 03:14:16;;;;;;;;;;;19.80;99.90;;;;;;5053710;28;19912;-66
2022/07/30 03:16:43;;;;;;;;;;;19.70;99.90;;;;;;5054958;28;19908;-66
2022/07/30 03:19:10;;;;;;;;;;;19.70;99.90;;;;;;5053969;28;19905;-66
2022/07/30 03:21:36;;;;;;;;;;;19.70;99.90;;;;;;5053444;28;19904;-66
2022/07/30 03:24:03;;;;;;;;;;;19.60;99.90;;;;;;5053950;28;19991;-66
2022/07/30 03:26:29;;;;;;;;;;;19.60;99.90;;;;;;5055113;28;19911;-66
2022/07/30 03:28:55;;;;;;;;;;;19.60;99.90;;;;;;5055177;28;19995;-66
2022/07/30 03:31:21;;;;;;;;;;;19.60;99.90;;;;;;5070884;28;20325;-66
2022/07/30 03:33:47;;;;;;;;;;;19.60;99.90;;;;;;5055938;28;20449;-66
2022/07/30 03:36:13;;;;;;;;;;;19.70;99.90;;;;;;5053797;28;20365;-66
2022/07/30 03:38:40;;;;;;;;;;;19.70;99.90;;;;;;5055038;28;20383;-66
2022/07/30 03:41:06;;;;;;;;;;;19.60;99.90;;;;;;5053733;28;19905;-66
2022/07/30 03:43:32;;;;;;;;;;;19.60;99.90;;;;;;5054419;28;20275;-67
2022/07/30 03:45:58;;;;;;;;;;;19.70;99.90;;;;;;5069498;28;19911;-65
2022/07/30 03:48:24;;;;;;;;;;;19.60;99.90;;;;;;5053060;28;19912;-65
2022/07/30 03:50:50;;;;;;;;;;;19.60;99.90;;;;;;5054191;28;19904;-65
2022/07/30 03:53:17;;;;;;;;;;;19.50;99.90;;;;;;5053007;28;19909;-66
2022/07/30 03:55:43;;;;;;;;;;;19.50;99.90;;;;;;5053924;28;19904;-65
2022/07/30 03:58:10;;;;;;;;;;;19.50;99.90;;;;;;5054093;28;19935;-66
2022/07/30 04:00:37;;;;;;;;;;;19.50;99.90;;;;;;5052847;28;20254;-67
2022/07/30 04:03:03;;;;;;;;;;;19.60;99.90;;;;;;5054444;28;19913;-66
2022/07/30 04:05:28;;;;;;;;;;;19.60;99.90;;;;;;5053965;28;19905;-66
2022/07/30 04:07:54;;;;;;;;;;;19.50;99.90;;;;;;5052754;28;19924;-66
2022/07/30 04:10:19;;;;;;;;;;;19.50;99.90;;;;;;5053824;28;19905;-66
2022/07/30 04:12:45;;;;;;;;;;;19.50;99.90;;;;;;5052595;28;19955;-67
2022/07/30 04:15:10;;;;;;;;;;;19.30;99.90;;;;;;5054014;28;20381;-66
2022/07/30 04:17:39;;;;;;;;;;;19.30;99.90;;;;;;5053725;28;19909;-67
2022/07/30 04:20:11;;;;;;;;;;;19.20;99.90;;;;;;5053674;28;19912;-67
2022/07/30 04:22:37;;;;;;;;;;;19.20;99.90;;;;;;5053703;28;19904;-66
2022/07/30 04:25:05;;;;;;;;;;;19.20;99.90;;;;;;5053520;28;19998;-66
2022/07/30 04:27:31;;;;;;;;;;;19.20;99.90;;;;;;5052360;28;19912;-66
2022/07/30 04:29:57;;;;;;;;;;;19.20;99.90;;;;;;5052336;28;19904;-66
2022/07/30 04:32:22;;;;;;;;;;;19.20;99.90;;;;;;5053487;28;19991;-66
2022/07/30 04:34:48;;;;;;;;;;;19.10;99.90;;;;;;5054196;28;20421;-66
2022/07/30 04:37:15;;;;;;;;;;;19.20;99.90;;;;;;5053874;28;19904;-66
2022/07/30 04:39:40;;;;;;;;;;;19.10;99.90;;;;;;5054638;28;19905;-66
2022/07/30 04:42:06;;;;;;;;;;;19.10;99.90;;;;;;5069300;28;20407;-66
2022/07/30 04:44:31;;;;;;;;;;;19.10;99.90;;;;;;5052593;28;19905;-66
2022/07/30 04:46:56;;;;;;;;;;;19.10;99.90;;;;;;5053931;28;19904;-66
2022/07/30 04:49:22;;;;;;;;;;;19.10;99.90;;;;;;5053681;28;19904;-66
2022/07/30 04:51:47;;;;;;;;;;;19.10;99.90;;;;;;5053238;28;19978;-66
2022/07/30 04:54:13;;;;;;;;;;;19.10;99.90;;;;;;5053815;28;19912;-66
2022/07/30 04:56:39;;;;;;;;;;;19.10;99.90;;;;;;5053580;28;19911;-66
2022/07/30 04:59:05;;;;;;;;;;;19.10;99.90;;;;;;5054178;28;19911;-68
2022/07/30 05:01:33;;;;;;;;;;;19.10;99.90;;;;;;5053356;28;19991;-67
2022/07/30 05:04:00;;;;;;;;;;;19.10;99.90;;;;;;5052043;28;19909;-67
2022/07/30 05:06:26;;;;;;;;;;;19.10;99.90;;;;;;5052917;28;20372;-67
2022/07/30 05:08:52;;;;;;;;;;;19.20;99.90;;;;;;5053617;28;20312;-67
2022/07/30 05:11:17;;;;;;;;;;;19.20;99.90;;;;;;5053990;28;19905;-66
2022/07/30 05:13:43;;;;;;;;;;;19.30;99.90;;;;;;5056908;28;20410;-66
2022/07/30 05:16:10;;;;;;;;;;;19.30;99.90;;;;;;5057132;28;19904;-66
2022/07/30 05:18:35;;;;;;;;;;;19.40;99.90;;;;;;5056802;28;19904;-66
2022/07/30 05:21:01;;;;;;;;;;;19.40;99.90;;;;;;5056804;28;19909;-66
2022/07/30 05:23:26;;;;;;;;;;;19.50;99.90;;;;;;5057368;28;20286;-66
2022/07/30 05:25:52;;;;;;;;;;;19.50;99.90;;;;;;5056725;28;19909;-66
2022/07/30 05:28:17;;;;;;;;;;;19.60;99.90;;;;;;5056662;28;19971;-67
2022/07/30 05:30:42;;;;;;;;;;;19.60;99.90;;;;;;5055326;28;19904;-67
2022/07/30 05:33:08;;;;;;;;;;;19.60;99.90;;;;;;5071682;28;20038;-66
2022/07/30 05:35:33;;;;;;;;;;;19.70;99.90;;;;;;5056512;28;19991;-66
2022/07/30 05:37:59;;;;;;;;;;;19.70;99.90;;;;;;5057133;28;19991;-66
2022/07/30 05:40:25;;;;;;;;;;;19.80;99.90;;;;;;5056870;28;19905;-66
2022/07/30 05:42:50;;;;;;;;;;;19.80;99.90;;;;;;5057313;28;19912;-66
2022/07/30 05:45:16;;;;;;;;;;;20.00;99.90;;;;;;5072971;28;19944;-66
2022/07/30 05:47:41;;;;;;;;;;;20.00;99.90;;;;;;5056899;28;19905;-66
2022/07/30 05:50:07;;;;;;;;;;;20.00;99.90;;;;;;5057085;28;19955;-66
2022/07/30 05:52:32;;;;;;;;;;;20.10;99.90;;;;;;5056947;28;19916;-66
2022/07/30 05:54:58;;;;;;;;;;;20.20;99.90;;;;;;5056979;28;19912;-66
2022/07/30 05:57:23;;;;;;;;;;;20.20;99.90;;;;;;5055605;28;20018;-67
2022/07/30 05:59:49;;;;;;;;;;;20.20;99.90;;;;;;5056647;28;19909;-66
2022/07/30 06:02:15;;;;;;;;;;;20.40;99.90;;;;;;5056218;28;19917;-66
2022/07/30 06:04:41;;;;;;;;;;;20.50;99.90;;;;;;5056556;28;19908;-65
2022/07/30 06:07:06;;;;;;;;;;;20.50;99.90;;;;;;5056098;28;19966;-66
2022/07/30 06:09:32;;;;;;;;;;;20.60;99.90;;;;;;5071595;28;20365;-66
2022/07/30 06:11:57;;;;;;;;;;;20.80;99.90;;;;;;5054885;28;19908;-66
2022/07/30 06:14:23;;;;;;;;;;;20.70;99.90;;;;;;5056024;28;20280;-66
2022/07/30 06:16:48;;;;;;;;;;;20.60;99.90;;;;;;5055936;28;20337;-67
2022/07/30 06:19:14;;;;;;;;;;;20.70;99.90;;;;;;5056302;28;19904;-66
2022/07/30 06:21:39;;;;;;;;;;;20.70;99.90;;;;;;5055983;28;19911;-66
2022/07/30 06:24:05;;;;;;;;;;;20.90;99.90;;;;;;5054681;28;19905;-64
2022/07/30 06:26:31;;;;;;;;;;;21.00;99.90;;;;;;5071755;28;19916;-64
2022/07/30 06:28:56;;;;;;;;;;;21.10;99.90;;;;;;5054735;28;20329;-65
2022/07/30 06:31:25;;;;;;;;;;;21.20;99.90;;;;;;5054353;28;19930;-65
2022/07/30 06:33:51;;;;;;;;;;;21.30;99.90;;;;;;5056532;28;19916;-65
2022/07/30 06:36:17;;;;;;;;;;;21.30;99.90;;;;;;5054879;28;19905;-65
2022/07/30 06:38:45;;;;;;;;;;;21.40;99.90;;;;;;5055579;28;19904;-66
2022/07/30 06:41:11;;;;;;;;;;;21.40;99.90;;;;;;5053955;28;19975;-65
2022/07/30 06:43:37;;;;;;;;;;;21.40;99.90;;;;;;5055920;28;19940;-66
2022/07/30 06:46:02;;;;;;;;;;;21.60;99.90;;;;;;5055833;28;19940;-64
2022/07/30 06:48:31;;;;;;;;;;;21.90;99.90;;;;;;5056329;28;19909;-66
2022/07/30 06:50:59;;;;;;;;;;;22.00;99.30;;;;;;5070930;28;19908;-66
2022/07/30 06:53:25;;;;;;;;;;;22.20;98.50;;;;;;5056175;28;20118;-65
2022/07/30 06:55:51;;;;;;;;;;;22.40;97.80;;;;;;5054981;28;20007;-64
2022/07/30 06:58:19;;;;;;;;;;;22.50;97.50;;;;;;5054457;28;19912;-64
2022/07/30 07:00:47;;;;;;;;;;;22.70;97.10;;;;;;5057136;28;19904;-65
2022/07/30 07:03:13;;;;;;;;;;;22.90;96.80;;;;;;5054518;28;19913;-66
2022/07/30 07:05:39;;;;;;;;;;;23.00;96.50;;;;;;5055744;28;19972;-65
2022/07/30 07:08:07;;;;;;;;;;;23.20;96.00;;;;;;5055221;28;19904;-65
2022/07/30 07:10:38;;;;;;;;;;;23.30;95.80;;;;;;5055596;28;19904;-64
2022/07/30 07:13:03;;;;;;;;;;;23.30;95.70;;;;;;5054996;28;19909;-63
2022/07/30 07:15:32;;;;;;;;;;;23.20;95.80;;;;;;5055074;28;19905;-65
2022/07/30 07:17:57;;;;;;;;;;;23.20;95.60;;;;;;5053827;28;19999;-64
2022/07/30 07:20:26;;;;;;;;;;;23.20;95.60;;;;;;5055248;28;20005;-66
2022/07/30 07:22:54;;;;;;;;;;;23.20;95.60;;;;;;5054435;28;19908;-66
2022/07/30 07:25:20;;;;;;;;;;;23.20;95.70;;;;;;5055770;28;19904;-64
2022/07/30 07:27:45;;;;;;;;;;;23.30;95.50;;;;;;5055332;28;20337;-64
2022/07/30 07:30:11;;;;;;;;;;;23.30;95.50;;;;;;5055380;28;19938;-66
2022/07/30 07:32:37;;;;;;;;;;;23.40;95.20;;;;;;5053805;28;20388;-65
2022/07/30 07:35:05;;;;;;;;;;;23.60;95.00;;;;;;5054780;28;20354;-65
2022/07/30 07:37:30;;;;;;;;;;;23.70;95.00;;;;;;5054363;28;19912;-66
2022/07/30 07:39:56;;;;;;;;;;;23.60;94.90;;;;;;5054633;28;19905;-66
2022/07/30 07:42:22;;;;;;;;;;;23.70;95.00;;;;;;5054666;28;19967;-65
2022/07/30 07:44:48;;;;;;;;;;;23.70;95.00;;;;;;5053398;28;19944;-65
2022/07/30 07:47:13;;;;;;;;;;;23.80;94.90;;;;;;5054380;28;19955;-65
2022/07/30 07:49:39;;;;;;;;;;;23.90;94.70;;;;;;5069957;28;19905;-66
2022/07/30 07:52:08;;;;;;;;;;;24.10;94.40;;;;;;5052677;28;20354;-65
2022/07/30 07:54:33;;;;;;;;;;;24.10;94.30;;;;;;5054721;28;20269;-64
2022/07/30 07:57:02;;;;;;;;;;;24.20;93.80;;;;;;5052877;28;19996;-65
2022/07/30 07:59:28;;;;;;;;;;;24.30;93.20;;;;;;5054566;28;19904;-65
2022/07/30 08:01:54;;;;;;;;;;;24.40;92.90;;;;;;5054667;28;19983;-67
2022/07/30 08:04:19;;;;;;;;;;;24.50;93.10;;;;;;5052880;28;20272;-68
2022/07/30 08:06:48;;;;;;;;;;;24.70;92.70;;;;;;5052659;28;19905;-68
2022/07/30 08:09:13;;;;;;;;;;;25.50;92.00;;;;;;5054899;28;20369;-68
2022/07/30 08:11:39;;;;;;;;;;;27.00;90.00;;;;;;5054529;28;19908;-66
2022/07/30 08:14:07;;;;;;;;;;;28.40;85.90;;;;;;5069679;28;19904;-67
2022/07/30 08:16:35;;;;;;;;;;;29.30;82.10;;;;;;5053922;28;20284;-67
2022/07/30 08:19:01;;;;;;;;;;;29.70;79.80;;;;;;5054459;28;20134;-68
2022/07/30 08:21:29;;;;;;;;;;;29.50;78.60;;;;;;5054183;28;19905;-67
2022/07/30 08:23:56;;;;;;;;;;;29.50;78.30;;;;;;5054337;28;20013;-69
2022/07/30 08:26:21;;;;;;;;;;;30.70;76.10;;;;;;5055678;28;20246;-66
2022/07/30 08:28:47;;;;;;;;;;;32.00;73.30;;;;;;5054235;28;19905;-67
2022/07/30 08:31:15;;;;;;;;;;;32.60;71.10;;;;;;5053062;28;19912;-67
2022/07/30 08:33:43;;;;;;;;;;;33.30;69.10;;;;;;5055982;28;19905;-68
2022/07/30 08:36:14;;;;;;;;;;;34.10;67.10;;;;;;5056332;28;19908;-66
2022/07/30 08:38:39;;;;;;;;;;;34.10;66.10;;;;;;5056213;28;19911;-68
2022/07/30 08:41:07;;;;;;;;;;;33.90;65.80;;;;;;5055323;28;19904;-67
2022/07/30 08:43:34;;;;;;;;;;;34.80;64.90;;;;;;5055126;28;20383;-68
2022/07/30 08:46:00;;;;;;;;;;;35.10;63.30;;;;;;5054907;28;20000;-66
2022/07/30 08:48:26;;;;;;;;;;;35.10;63.30;;;;;;5058611;28;19905;-67
2022/07/30 08:50:52;;;;;;;;;;;35.80;62.30;;;;;;5057026;28;19967;-67
2022/07/30 08:53:18;;;;;;;;;;;36.50;61.60;;;;;;5056905;28;20003;-66
2022/07/30 08:55:43;;;;;;;;;;;37.30;60.40;;;;;;5060113;28;19950;-66
2022/07/30 08:58:28;;;;;;;;;;;37.50;58.80;;;;;;5059274;28;19904;-67
2022/07/30 09:00:55;;;;;;;;;;;37.40;59.00;;;;;;5057381;28;19909;-66
2022/07/30 09:03:20;;;;;;;;;;;37.80;57.90;;;;;;5057687;28;19913;-65
2022/07/30 09:05:46;;;;;;;;;;;36.70;57.90;;;;;;5057735;28;20381;-64
2022/07/30 09:08:11;;;;;;;;;;;36.80;57.20;;;;;;5057656;28;19909;-65
2022/07/30 09:10:37;;;;;;;;;;;37.00;56.30;;;;;;5056722;28;19992;-64
2022/07/30 09:13:02;;;;;;;;;;;36.90;55.50;;;;;;5057607;28;19999;-64
2022/07/30 09:15:28;;;;;;;;;;;37.40;53.90;;;;;;5058761;28;19905;-65
2022/07/30 09:17:59;;;;;;;;;;;36.20;54.80;;;;;;5058201;28;20403;-65
2022/07/30 09:20:26;;;;;;;;;;;34.90;56.20;;;;;;5056115;28;19909;-64
2022/07/30 09:22:53;;;;;;;;;;;33.50;57.50;;;;;;5057176;28;20000;-65
2022/07/30 09:25:31;;;;;;;;;;;32.30;59.00;;;;;;5057032;28;19905;-65
2022/07/30 09:27:57;;;;;;;;;;;31.10;60.20;;;;;;5057619;28;20004;-65
2022/07/30 09:30:22;;;;;;;;;;;30.20;62.50;;;;;;5056449;28;19947;-64
2022/07/30 09:32:52;;;;;;;;;;;30.10;63.40;;;;;;5057462;28;19909;-64
2022/07/30 09:35:18;;;;;;;;;;;31.10;62.70;;;;;;5057172;28;19958;-64
2022/07/30 09:37:44;;;;;;;;;;;32.10;61.60;;;;;;5057275;28;19909;-65
2022/07/30 09:40:11;;;;;;;;;;;33.50;59.10;;;;;;5055238;28;20323;-65
2022/07/30 09:42:37;;;;;;;;;;;34.40;58.30;;;;;;5056536;28;19912;-66
2022/07/30 09:45:07;;;;;;;;;;;35.10;57.10;;;;;;5057283;28;20042;-65
2022/07/30 09:47:33;;;;;;;;;;;36.40;56.50;;;;;;5056866;28;19911;-66
2022/07/30 09:50:07;;;;;;;;;;;36.50;55.20;;;;;;5055375;28;20314;-65
2022/07/30 09:52:32;;;;;;;;;;;37.10;55.00;;;;;;5055974;28;19915;-65
2022/07/30 09:54:58;;;;;;;;;;;37.50;54.60;;;;;;5057508;28;19905;-65
2022/07/30 09:57:24;;;;;;;;;;;38.40;54.20;;;;;;5055313;28;19909;-65
2022/07/30 09:59:49;;;;;;;;;;;39.20;53.20;;;;;;5057529;28;19908;-65
2022/07/30 10:02:15;;;;;;;;;;;39.10;53.20;;;;;;5056835;28;19913;-65
2022/07/30 10:04:40;;;;;;;;;;;39.20;52.70;;;;;;5056665;28;19954;-66
2022/07/30 10:07:15;;;;;;;;;;;39.90;52.30;;;;;;5057400;28;19904;-66
2022/07/30 10:09:44;;;;;;;;;;;40.50;51.50;;;;;;5056594;28;19905;-65
2022/07/30 10:12:09;;;;;;;;;;;39.60;51.80;;;;;;5055837;28;19916;-65
2022/07/30 10:14:36;;;;;;;;;;;39.60;51.50;;;;;;5056378;28;19905;-65
2022/07/30 10:17:02;;;;;;;;;;;39.80;51.20;;;;;;5056333;28;20280;-66
2022/07/30 10:19:28;;;;;;;;;;;39.20;51.50;;;;;;5056644;28;19927;-65
2022/07/30 10:21:56;;;;;;;;;;;38.90;51.80;;;;;;5056235;28;20375;-65
2022/07/30 10:24:23;;;;;;;;;;;38.70;51.90;;;;;;5055463;28;20002;-65
2022/07/30 10:26:49;;;;;;;;;;;38.40;52.20;;;;;;5056135;28;19911;-66
2022/07/30 10:29:16;;;;;;;;;;;38.00;52.10;;;;;;5056643;28;19958;-65
2022/07/30 10:31:43;;;;;;;;;;;37.50;52.80;;;;;;5055969;28;19912;-66
2022/07/30 10:34:09;;;;;;;;;;;37.40;52.40;;;;;;5055716;28;19916;-66
2022/07/30 10:36:35;;;;;;;;;;;37.70;52.10;;;;;;5071771;28;19948;-67
2022/07/30 10:39:01;;;;;;;;;;;37.90;51.60;;;;;;5055332;28;19904;-66
2022/07/30 10:41:32;;;;;;;;;;;37.30;51.70;;;;;;5057403;28;19912;-65
2022/07/30 10:44:09;;;;;;;;;;;37.80;51.90;;;;;;5056324;28;19951;-66
2022/07/30 10:47:02;;;;;;;;;;;37.30;52.10;;;;;;5056068;28;20342;-64
2022/07/30 10:49:27;;;;;;;;;;;37.00;52.80;;;;;;5052764;28;19904;-64
2022/07/30 10:51:53;;;;;;;;;;;37.90;51.90;;;;;;5055563;28;20388;-64
2022/07/30 10:54:34;;;;;;;;;;;37.50;51.50;;;;;;5055855;28;19905;-63
2022/07/30 10:57:06;;;;;;;;;;;37.50;51.60;;;;;;5056312;28;19905;-63
2022/07/30 10:59:49;;;;;;;;;;;37.30;51.50;;;;;;5056205;28;19908;-63
2022/07/30 11:02:15;;;;;;;;;;;37.10;52.10;;;;;;5056052;28;20011;-63
2022/07/30 11:04:41;;;;;;;;;;;37.10;51.40;;;;;;5055600;28;19940;-63
2022/07/30 11:07:28;;;;;;;;;;;37.20;51.90;;;;;;5056512;28;19959;-66
2022/07/30 11:09:55;;;;;;;;;;;37.60;51.60;;;;;;5056058;28;19904;-65
2022/07/30 11:12:56;;;;;;;;;;;37.10;51.50;;;;;;5055708;28;19912;-65
2022/07/30 11:15:22;;;;;;;;;;;36.50;52.10;;;;;;4979308;28;19910;-64
2022/07/30 11:18:04;;;;;;;;;;;35.00;52.80;;;;;;4977741;28;20005;-64
2022/07/30 11:20:30;;;;;;;;;;;33.90;53.80;;;;;;4994585;28;19912;-63
2022/07/30 11:23:18;;;;;;;;;;;33.00;54.40;;;;;;4994661;28;19989;-64
2022/07/30 11:25:46;;;;;;;;;;;32.50;55.20;;;;;;4980773;28;19920;-64
2022/07/30 11:28:30;;;;;;;;;;;32.10;55.70;;;;;;4995797;28;19913;-62
2022/07/30 11:30:56;;;;;;;;;;;31.70;56.30;;;;;;4995407;28;20340;-65
2022/07/30 11:33:22;;;;;;;;;;;31.40;57.00;;;;;;4995375;28;19914;-64
2022/07/30 11:36:10;;;;;;;;;;;31.20;57.00;;;;;;4980232;28;19913;-65
2022/07/30 11:38:54;;;;;;;;;;;30.90;57.50;;;;;;4978568;28;19956;-65
2022/07/30 11:41:20;;;;;;;;;;;30.70;58.50;;;;;;4994884;28;19910;-65
2022/07/30 11:43:46;;;;;;;;;;;30.60;57.90;;;;;;4994262;28;19906;-65
2022/07/30 11:46:21;;;;;;;;;;;30.50;57.80;;;;;;4994786;28;19957;-65
2022/07/30 11:48:56;;;;;;;;;;;30.40;58.00;;;;;;5012658;28;19996;-66
2022/07/30 11:51:22;;;;;;;;;;;30.10;58.40;;;;;;5055842;28;19905;-67
2022/07/30 11:54:17;;;;;;;;;;;29.70;58.90;;;;;;5053338;28;19904;-65
2022/07/30 11:56:47;;;;;;;;;;;29.60;59.30;;;;;;5041113;28;19955;-65
2022/07/30 11:59:12;;;;;;;;;;;29.70;58.90;;;;;;5055007;28;19905;-64
2022/07/30 12:01:38;;;;;;;;;;;29.80;58.40;;;;;;5055716;28;20372;-65
2022/07/30 12:04:04;;;;;;;;;;;29.80;58.70;;;;;;5055824;28;19916;-66
2022/07/30 12:06:30;;;;;;;;;;;30.00;58.30;;;;;;5058359;28;19905;-70
2022/07/30 12:08:56;;;;;;;;;;;30.00;58.10;;;;;;5055531;28;19904;-68
2022/07/30 12:11:22;;;;;;;;;;;29.90;58.30;;;;;;5055498;28;19905;-66
2022/07/30 12:13:56;;;;;;;;;;;30.00;58.00;;;;;;5052935;28;19912;-64
2022/07/30 12:16:21;;;;;;;;;;;30.00;58.20;;;;;;5056439;28;20404;-65
2022/07/30 12:18:48;;;;;;;;;;;30.10;58.00;;;;;;5055664;28;19927;-65
2022/07/30 12:23:56;;;;;;;;;;;30.10;57.20;;;;;;5240952;22;19982;-65
2022/07/30 12:26:26;;;;;;;;;;;30.00;57.80;;;;;;5055772;28;20410;-66
2022/07/30 12:28:52;;;;;;;;;;;29.80;57.80;;;;;;5036080;28;20378;-65
2022/07/30 12:31:17;;;;;;;;;;;29.60;58.30;;;;;;5054049;28;19909;-65
2022/07/30 12:33:43;;;;;;;;;;;29.50;58.40;;;;;;5036442;28;20003;-65
2022/07/30 12:36:09;;;;;;;;;;;29.50;58.40;;;;;;5054764;28;19908;-65
2022/07/30 12:38:46;;;;;;;;;;;29.40;58.50;;;;;;5060262;23;19921;-67
2022/07/30 12:41:12;;;;;;;;;;;29.50;58.40;;;;;;5055720;28;19904;-68
2022/07/30 12:43:55;;;;;;;;;;;29.60;58.20;;;;;;5055006;28;20323;-68
2022/07/30 12:46:21;;;;;;;;;;;29.60;58.20;;;;;;5054840;28;20318;-67
2022/07/30 12:48:53;;;;;;;;;;;29.60;58.40;;;;;;5036803;28;20356;-67
2022/07/30 12:51:18;;;;;;;;;;;29.70;58.50;;;;;;5037215;28;19909;-67
2022/07/30 12:53:44;;;;;;;;;;;29.80;58.10;;;;;;5054813;28;20335;-66
2022/07/30 12:56:11;;;;;;;;;;;29.90;58.30;;;;;;5035749;28;19955;-66
2022/07/30 12:58:37;;;;;;;;;;;30.00;58.00;;;;;;5054382;28;19912;-68
2022/07/30 13:01:02;;;;;;;;;;;30.00;57.70;;;;;;5036322;28;20293;-67
2022/07/30 13:03:28;;;;;;;;;;;30.00;58.10;;;;;;5055555;28;19904;-66
2022/07/30 13:05:55;;;;;;;;;;;30.00;58.20;;;;;;5056106;28;19912;-65
2022/07/30 13:08:20;;;;;;;;;;;30.10;57.70;;;;;;5056404;28;20336;-66
2022/07/30 13:10:56;;;;;;;;;;;30.20;57.60;;;;;;5055628;28;19905;-65
2022/07/30 13:13:21;;;;;;;;;;;30.10;58.10;;;;;;5055064;28;19908;-65
2022/07/30 13:16:00;;;;;;;;;;;30.10;57.50;;;;;;5054426;28;20276;-66
2022/07/30 13:18:27;;;;;;;;;;;30.10;57.50;;;;;;5053962;28;20354;-66
2022/07/30 13:20:52;;;;;;;;;;;30.00;57.60;;;;;;5053512;28;19904;-63
2022/07/30 13:25:17;;;;;;;5.40;1.55;;;29.90;57.30;;;;;;5166443;27;20298;-65
2022/07/30 13:27:43;;;;;;;4.18;1.90;;;30.10;57.90;;;;;;5132723;28;20029;-65
2022/07/30 13:30:09;;;;;;;3.25;1.48;;;30.20;58.90;;;;;;5130733;27;20030;-65
2022/07/30 13:32:35;;;;;;;2.08;1.25;;;30.30;58.30;;;;;;5131880;28;20034;-63
2022/07/30 13:35:00;;;;;;;3.47;1.13;;;30.10;57.70;;;;;;5130883;28;20027;-68
2022/07/30 13:37:26;;;;;;;1.38;1.10;;;29.90;57.90;;;;;;5129978;27;20059;-70
2022/07/30 13:39:52;;;;;;;1.80;1.35;;;29.90;57.90;;;;;;5131801;27;20015;-69
2022/07/30 13:42:17;;;;;;;3.45;1.30;;;30.10;57.90;;;;;;5131006;28;20044;-66
2022/07/30 13:44:43;;;;;;;3.35;1.20;;;30.10;57.80;;;;;;5133433;28;20023;-68
2022/07/30 13:47:08;;;;;;;2.50;1.90;;;30.20;57.60;;;;;;5132136;27;20062;-65
2022/07/30 13:49:36;;;;;;;2.83;1.30;;;30.20;57.80;;;;;;5132222;27;20016;-63
2022/07/30 13:52:01;;;;;;;3.28;1.27;;;30.20;57.80;;;;;;5131929;28;20365;-65
2022/07/30 13:54:29;;;;;;;2.60;1.17;;;30.20;58.20;;;;;;5131840;27;20080;-70
2022/07/30 13:56:54;;;;;;;3.40;1.10;;;30.00;57.70;;;;;;5131060;27;20019;-65
2022/07/30 13:59:20;;;;;;;2.10;1.23;;;29.80;58.30;;;;;;5130811;28;20031;-65
2022/07/30 14:01:45;;;;;;;5.55;4.05;;;29.80;58.40;;;;;;5130824;28;20030;-64
2022/07/30 14:04:11;;;;;;;2.88;1.33;;;29.90;58.40;;;;;;5129259;28;20027;-64
2022/07/30 14:06:37;;;;;;;2.25;1.30;;;30.10;58.10;;;;;;5130308;27;20019;-66
2022/07/30 14:09:03;;;;;;;2.13;1.27;;;30.30;57.80;;;;;;5130427;28;20387;-65
2022/07/30 14:11:30;;;;;;;1.90;1.30;;;30.40;57.50;;;;;;5130551;27;20090;-66
2022/07/30 14:13:55;;;;;;;2.05;1.25;;;30.60;57.40;;;;;;5130840;28;20028;-65
2022/07/30 14:16:21;;;;;;;1.30;0.95;;;30.70;57.50;;;;;;5134990;28;20058;-65